Impacts METAR Board INFO
IDs:

KSTL - St Louis/Lambert Int, MO, US

Updated at: 0433 UTC 22 Jan 2018
Potential Impact None Slight Moderate High
Time21/16Z 21/17Z 21/18Z 21/19Z 21/20Z 21/21Z 21/22Z 21/23Z 22/00Z 22/01Z 22/02Z 22/03Z 22/04Z
VIS7 10 10 10 10 10 10 10 10 10 9 10 8
CIG250 250 250 34 38 45 250 39 27 13 10 9 9
CoverBKNBKNBKNBKNBKNBKNBKNBKNBKNOVCOVCOVCOVC
FltCatVFRVFRVFRVFRVFRVFRVFRVFRMVFRMVFRMVFRIFRIFR
WX---------------------RA----
WDir130160170180200190170170150140160170170
WSpd11 9 12 15 18 12 12 13 9 9 15 14 11
WGst-- -- -- 24 23 20 24 20 -- -- 19 20 --
Raw hourly METARs
KSTL 211551Z 13011KT 7SM FEW022 BKN250 13/11 A2996 RMK AO2 SLP146 T01280111
KSTL 211651Z 16009KT 10SM FEW025 BKN250 16/12 A2993 RMK AO2 SLP139 T01560122
KSTL 211751Z 17012KT 10SM SCT026 BKN250 18/12 A2989 RMK AO2 SLP123 T01830122 10183 20061 58023
KSTL 211851Z 18015G24KT 10SM BKN034 BKN250 20/12 A2985 RMK AO2 SLP110 T02000122
KSTL 211951Z 20018G23KT 10SM BKN038 BKN250 20/12 A2983 RMK AO2 SLP103 T02000122
KSTL 212051Z 19012G20KT 10SM BKN045 BKN250 19/12 A2982 RMK AO2 SLP099 T01890122 56021
KSTL 212151Z COR 17012G24KT 10SM SCT049 BKN250 18/12 A2982 RMK AO2 SLP099 T01830122
KSTL 212251Z 17013G20KT 10SM SCT029 BKN039 BKN250 18/12 A2983 RMK AO2 SLP101 T01780122
KSTL 212351Z COR 15009KT 10SM BKN027 BKN080 16/12 A2984 RMK AO2 SLP104 T01560122 10206 20156 53004
KSTL 220051Z 14009KT 10SM BKN013 BKN023 OVC095 14/12 A2983 RMK AO2 SLP103 T01440122
KSTL 220151Z 16015G19KT 9SM -RA BKN010 OVC015 14/13 A2983 RMK AO2 RAB14 SLP103 P0000 T01390128
KSTL 220251Z 17014G20KT 10SM BKN009 OVC090 14/13 A2982 RMK AO2 RAE15 SLP097 P0000 60000 T01390133 58006
KSTL 220351Z 17011KT 8SM BKN009 BKN021 OVC026 14/13 A2980 RMK AO2 SLP090 T01390133